Terminal Aerodrome Forecast
Issued by NWS

Home | Current Version | Previous Version | Text Only | Print | Product List | Glossary On
Versions: 1 2 3 4 5 6 7 8 9 10 11 12 13 14 15
693
FTUS43 KMPX 131801 AAA
TAFRWF
TAF AMD
KRWF 131801Z 1318/1418 33022G32KT P6SM BKN020
     FM140000 33015G21KT P6SM BKN025
     FM140300 33010G18KT P6SM BKN030
     FM140900 30007KT P6SM BKN015
     FM141400 30004KT P6SM BKN015
     FM141700 31005KT P6SM BKN035=

USA.gov is the U.S. government's official web portal to all federal, state and local government web resources and services.